Time;durP1;ratioP1;P1;durP2;ratioP2;P2;SDS_P1;SDS_P2;PMS_P1;PMS_P2;Temp;Humidity;BMP_temperature;BMP_pressure;BME280_temperature;BME280_humidity;BME280_pressure;Samples;Min_cycle;Max_cycle;Signal;HPM_P1;HPM_P2
2022/08/13 00:00:17;;;;;;;7.68;3.05;;;21.40;63.80;;;;;;5068285;28;20028;-83
2022/08/13 00:02:43;;;;;;;6.70;3.53;;;21.40;63.80;;;;;;5068956;28;20033;-82
2022/08/13 00:05:09;;;;;;;7.47;3.60;;;21.30;63.40;;;;;;5059221;28;20106;-82
2022/08/13 00:07:36;;;;;;;5.25;3.50;;;21.30;63.90;;;;;;5060323;28;20033;-82
2022/08/13 00:10:05;;;;;;;6.50;3.42;;;21.30;64.10;;;;;;5044013;28;20033;-82
2022/08/13 00:15:28;;;;;;;5.73;3.00;;;21.20;63.60;;;;;;5073436;28;20283;-82
2022/08/13 00:17:58;;;;;;;8.23;3.35;;;21.20;63.60;;;;;;5069077;28;20047;-84
2022/08/13 00:20:27;;;;;;;4.70;2.05;;;21.20;64.00;;;;;;5064069;28;20013;-84
2022/08/13 00:22:55;;;;;;;4.18;2.10;;;21.20;63.40;;;;;;5052593;28;20036;-82
2022/08/13 00:25:21;;;;;;;4.65;2.00;;;;;;;;;;5045678;28;20025;-79
2022/08/13 00:27:47;;;;;;;3.95;1.92;;;21.10;61.40;;;;;;5063991;28;20056;-81
2022/08/13 00:30:17;;;;;;;2.65;1.70;;;21.10;61.90;;;;;;5067332;28;20021;-79
2022/08/13 00:32:45;;;;;;;;;;;21.00;61.80;;;;;;5050993;28;20017;-82
2022/08/13 00:35:12;;;;;;;6.22;1.95;;;21.00;61.30;;;;;;5067426;28;19955;-82
2022/08/13 00:37:41;;;;;;;4.72;1.90;;;;;;;;;;5051631;28;20052;-84
2022/08/13 00:40:11;;;;;;;8.67;2.17;;;21.00;61.50;;;;;;5053209;28;20013;-82
2022/08/13 00:42:37;;;;;;;;;;;20.90;62.20;;;;;;5067797;28;20487;-82
2022/08/13 00:45:05;;;;;;;3.88;1.92;;;20.80;62.30;;;;;;5053806;28;19927;-82
2022/08/13 00:50:14;;;;;;;7.00;2.22;;;20.80;62.80;;;;;;5071348;28;20526;-83
2022/08/13 00:52:41;;;;;;;5.93;3.08;;;20.70;62.90;;;;;;5070522;28;20021;-81
2022/08/13 00:55:16;;;;;;;4.82;2.33;;;20.70;62.80;;;;;;5049104;28;20025;-81
2022/08/13 00:57:44;;;;;;;4.22;2.20;;;20.80;63.60;;;;;;5066200;28;20560;-81
2022/08/13 01:00:13;;;;;;;3.45;2.20;;;20.70;63.80;;;;;;5067740;28;20045;-83
2022/08/13 01:02:44;;;;;;;4.97;1.90;;;20.60;63.60;;;;;;5057898;28;20025;-81
2022/08/13 01:05:10;;;;;;;3.42;2.10;;;;;;;;;;5039973;28;20041;-83
2022/08/13 01:07:41;;;;;;;2.55;1.80;;;20.60;63.20;;;;;;5069383;28;20395;-84
2022/08/13 01:10:07;;;;;;;;;;;20.60;63.70;;;;;;5051978;28;20075;-82
2022/08/13 01:12:35;;;;;;;6.07;3.42;;;20.50;63.70;;;;;;5054602;28;19960;-83
2022/08/13 01:15:02;;;;;;;4.60;2.08;;;20.50;63.20;;;;;;5078184;28;20084;-84
2022/08/13 01:17:28;;;;;;;3.15;1.77;;;;;;;;;;5060882;28;20021;-81
2022/08/13 01:19:54;;;;;;;3.58;2.15;;;;;;;;;;5076075;28;20016;-82
2022/08/13 01:22:25;;;;;;;4.53;1.90;;;20.40;63.40;;;;;;5074071;28;20048;-81
2022/08/13 01:24:52;;;;;;;3.40;2.10;;;;;;;;;;5027281;28;20065;-81
2022/08/13 01:27:22;;;;;;;2.90;2.00;;;20.30;64.20;;;;;;5056913;28;20033;-81
2022/08/13 01:29:48;;;;;;;3.40;2.47;;;20.30;64.90;;;;;;5040148;28;20483;-80
2022/08/13 01:32:15;;;;;;;4.60;2.45;;;20.30;65.50;;;;;;5065557;28;20029;-82
2022/08/13 01:34:45;;;;;;;4.90;2.50;;;20.20;65.60;;;;;;5067575;28;20024;-85
2022/08/13 01:37:13;;;;;;;3.55;2.10;;;20.20;65.90;;;;;;5066502;28;20094;-82
2022/08/13 01:39:40;;;;;;;3.35;2.10;;;;;;;;;;5062505;28;20025;-80
2022/08/13 01:42:08;;;;;;;3.58;2.03;;;20.20;66.30;;;;;;5066261;28;20036;-83
2022/08/13 01:44:35;;;;;;;4.05;2.15;;;20.10;65.10;;;;;;5070152;28;20104;-81
2022/08/13 01:52:36;;;;;;;3.78;2.10;;;;;;;;;;5059548;28;20036;-82
2022/08/13 01:55:04;;;;;;;4.65;2.35;;;20.00;66.10;;;;;;5048735;28;20017;-83
2022/08/13 01:57:33;;;;;;;5.35;2.72;;;20.00;67.60;;;;;;5055653;28;20005;-82
2022/08/13 02:00:00;;;;;;;5.50;2.85;;;20.00;68.00;;;;;;5062845;28;20037;-82
2022/08/13 02:02:29;;;;;;;4.82;2.55;;;20.00;68.30;;;;;;5063980;28;20032;-82
2022/08/13 02:04:55;;;;;;;5.10;2.13;;;;;;;;;;5048129;28;20021;-83
2022/08/13 02:07:21;;;;;;;8.32;2.40;;;20.00;68.20;;;;;;5055812;28;20082;-81
2022/08/13 02:09:47;;;;;;;5.32;3.00;;;;;;;;;;5045111;28;20043;-83
2022/08/13 02:12:15;;;;;;;4.65;2.97;;;19.90;69.00;;;;;;5061872;28;20025;-82
2022/08/13 02:14:42;;;;;;;4.28;2.63;;;19.90;68.80;;;;;;5038623;28;20017;-81
2022/08/13 02:17:25;;;;;;;4.68;3.05;;;19.90;69.20;;;;;;5052188;28;20082;-80
2022/08/13 02:19:53;;;;;;;5.10;2.85;;;19.90;69.30;;;;;;5062745;28;20372;-86
2022/08/13 02:22:19;;;;;;;6.97;2.80;;;19.80;68.30;;;;;;5062259;28;20028;-83
2022/08/13 02:24:53;;;;;;;5.47;2.65;;;19.80;68.20;;;;;;5058752;28;20039;-83
2022/08/13 02:27:21;;;;;;;5.28;2.53;;;19.80;68.90;;;;;;5062991;28;20021;-83
2022/08/13 02:29:49;;;;;;;8.30;2.90;;;19.80;69.50;;;;;;5061833;28;20025;-81
2022/08/13 02:32:16;;;;;;;4.53;2.60;;;19.80;69.40;;;;;;5062795;28;20021;-80
2022/08/13 02:34:43;;;;;;;3.70;2.60;;;;;;;;;;5062047;28;20021;-80
2022/08/13 02:37:11;;;;;;;6.90;2.80;;;19.80;68.50;;;;;;5045527;28;20498;-81
2022/08/13 02:39:37;;;;;;;5.13;2.53;;;;;;;;;;5061173;28;20494;-84
2022/08/13 02:42:03;;;;;;;4.35;2.72;;;19.70;67.90;;;;;;5060554;28;20031;-82
2022/08/13 02:44:29;;;;;;;7.72;2.83;;;19.70;68.10;;;;;;5043367;28;20055;-82
2022/08/13 02:46:54;;;;;;;4.68;2.30;;;19.70;68.50;;;;;;5047613;28;20025;-81
2022/08/13 02:49:21;;;;;;;5.18;2.20;;;19.70;68.30;;;;;;5048300;28;20053;-81
2022/08/13 02:51:47;;;;;;;6.18;2.90;;;19.70;68.20;;;;;;5056134;28;20028;-82
2022/08/13 02:54:16;;;;;;;3.15;2.03;;;19.80;67.00;;;;;;5056855;28;20025;-81
2022/08/13 02:56:43;;;;;;;4.78;1.85;;;19.80;67.00;;;;;;5062857;28;20086;-82
2022/08/13 02:59:10;;;;;;;3.30;1.70;;;19.80;66.70;;;;;;5043771;28;20056;-81
2022/08/13 03:01:38;;;;;;;4.57;1.95;;;19.80;66.30;;;;;;5062021;28;20035;-81
2022/08/13 03:04:05;;;;;;;3.42;2.05;;;19.80;65.40;;;;;;5049693;28;20025;-83
2022/08/13 03:06:31;;;;;;;4.25;1.70;;;19.70;65.80;;;;;;5044004;28;20025;-80
2022/08/13 03:09:01;;;;;;;4.00;2.05;;;19.80;65.80;;;;;;5043890;28;20028;-81
2022/08/13 03:11:29;;;;;;;3.78;1.80;;;19.70;65.70;;;;;;5062453;28;20025;-82
2022/08/13 03:14:02;;;;;;;3.47;1.60;;;19.70;65.30;;;;;;5044950;28;20036;-81
2022/08/13 03:16:28;;;;;;;2.88;1.50;;;19.70;65.70;;;;;;5063029;28;20033;-81
2022/08/13 03:18:56;;;;;;;3.70;1.85;;;19.70;65.70;;;;;;5062768;28;20045;-80
2022/08/13 03:21:29;;;;;;;4.55;1.65;;;19.80;65.60;;;;;;5046573;28;20051;-82
2022/08/13 03:23:55;;;;;;;2.67;1.67;;;19.70;65.20;;;;;;5039201;28;20025;-81
2022/08/13 03:26:21;;;;;;;3.53;1.73;;;19.70;65.70;;;;;;5070964;28;20036;-82
2022/08/13 03:28:51;;;;;;;4.45;1.67;;;19.70;65.80;;;;;;5065930;28;20036;-81
2022/08/13 03:31:18;;;;;;;2.88;1.60;;;19.70;65.90;;;;;;5062578;28;20021;-82
2022/08/13 03:33:44;;;;;;;2.47;1.70;;;19.60;65.60;;;;;;5057625;28;20033;-82
2022/08/13 03:36:10;;;;;;;4.57;1.73;;;19.60;66.10;;;;;;5054572;28;20039;-82
2022/08/13 03:38:36;;;;;;;3.47;1.50;;;;;;;;;;5053162;28;20449;-83
2022/08/13 03:41:12;;;;;;;2.22;1.60;;;19.60;65.80;;;;;;5033053;28;20033;-82
2022/08/13 03:43:47;;;;;;;3.13;1.70;;;19.60;65.80;;;;;;5042048;28;20028;-81
2022/08/13 03:46:14;;;;;;;1.92;1.50;;;19.60;66.70;;;;;;5063939;28;20095;-82
2022/08/13 03:48:40;;;;;;;2.97;1.42;;;;;;;;;;5060548;28;20495;-82
2022/08/13 03:51:07;;;;;;;2.50;1.55;;;19.50;65.70;;;;;;5058725;28;20036;-81
2022/08/13 03:53:34;;;;;;;2.72;1.60;;;19.40;66.10;;;;;;5058681;28;20075;-79
2022/08/13 03:56:00;;;;;;;3.83;1.63;;;;;;;;;;5059580;28;20031;-84
2022/08/13 03:58:28;;;;;;;2.50;1.40;;;19.40;66.60;;;;;;5059790;28;20032;-84
2022/08/13 04:00:55;;;;;;;3.63;1.98;;;19.50;65.80;;;;;;5042067;28;20037;-84
2022/08/13 04:03:29;;;;;;;5.28;1.27;;;19.40;65.70;;;;;;5043493;28;20120;-83
2022/08/13 04:05:58;;;;;;;4.57;1.50;;;19.40;66.10;;;;;;5053937;28;20028;-82
2022/08/13 04:08:34;;;;;;;3.08;1.70;;;19.50;66.20;;;;;;5052637;28;20108;-82
2022/08/13 04:11:05;;;;;;;3.13;1.73;;;19.50;66.60;;;;;;5051137;28;20025;-84
2022/08/13 04:13:36;;;;;;;3.38;1.83;;;19.60;65.90;;;;;;5028949;28;20035;-82
2022/08/13 04:16:07;;;;;;;2.75;1.65;;;19.50;66.30;;;;;;5060810;28;20409;-81
2022/08/13 04:18:40;;;;;;;4.90;1.73;;;20.80;67.00;;;;;;5038473;28;20639;-82
2022/08/13 04:21:08;;;;;;;2.45;1.45;;;19.60;66.10;;;;;;5065809;28;20029;-86
2022/08/13 04:23:39;;;;;;;4.45;1.70;;;19.60;65.70;;;;;;5074102;28;20020;-82
2022/08/13 04:26:09;;;;;;;3.55;1.80;;;19.60;65.80;;;;;;5071342;28;20021;-83
2022/08/13 04:28:38;;;;;;;4.22;1.50;;;19.50;65.80;;;;;;5068353;28;20056;-82
2022/08/13 04:31:05;;;;;;;2.80;1.70;;;19.40;66.30;;;;;;5076688;28;20021;-81
2022/08/13 04:33:31;;;;;;;3.25;1.40;;;19.40;66.10;;;;;;5072354;28;20021;-81
2022/08/13 04:35:57;;;;;;;2.58;1.70;;;;;;;;;;5047694;28;20025;-81
2022/08/13 04:38:23;;;;;;;5.50;1.58;;;19.40;66.20;;;;;;5041847;28;20025;-82
2022/08/13 04:40:51;;;;;;;3.90;1.60;;;19.30;66.30;;;;;;5044656;28;20051;-82
2022/08/13 04:43:16;;;;;;;3.78;1.70;;;19.30;66.60;;;;;;5043170;28;20104;-82
2022/08/13 04:45:42;;;;;;;3.50;1.80;;;19.40;67.10;;;;;;5040680;28;20049;-82
2022/08/13 04:48:12;;;;;;;2.80;1.58;;;19.30;67.10;;;;;;5043651;28;20029;-81
2022/08/13 04:50:39;;;;;;;3.58;1.70;;;19.30;67.10;;;;;;5057901;28;20029;-81
2022/08/13 04:53:23;;;;;;;2.83;1.50;;;19.30;66.90;;;;;;5061735;28;20025;-81
2022/08/13 04:55:48;;;;;;;2.20;1.60;;;19.30;67.30;;;;;;5055694;28;20026;-81
2022/08/13 04:58:15;;;;;;;3.10;1.55;;;19.30;66.90;;;;;;5034933;28;20029;-80
2022/08/13 05:00:44;;;;;;;6.70;1.63;;;19.20;67.40;;;;;;5043657;28;20029;-81
2022/08/13 05:03:11;;;;;;;4.78;1.88;;;;;;;;;;5049465;28;20025;-82
2022/08/13 05:05:37;;;;;;;3.40;1.63;;;19.30;66.80;;;;;;5045122;28;20033;-84
2022/08/13 05:08:07;;;;;;;2.67;1.30;;;19.40;67.80;;;;;;5063774;28;20052;-83
2022/08/13 05:10:38;;;;;;;2.20;1.50;;;19.40;67.10;;;;;;5056172;28;20026;-82
2022/08/13 05:13:04;;;;;;;3.88;1.50;;;;;;;;;;5044908;28;20106;-79
2022/08/13 05:15:31;;;;;;;3.53;1.50;;;19.40;66.70;;;;;;5049903;28;20045;-79
2022/08/13 05:17:57;;;;;;;4.60;1.80;;;19.30;67.10;;;;;;5043271;28;20417;-81
2022/08/13 05:20:23;;;;;;;2.63;1.60;;;19.40;67.20;;;;;;5058216;28;20029;-79
2022/08/13 05:22:48;;;;;;;3.60;1.90;;;19.40;67.20;;;;;;5043768;28;20029;-81
2022/08/13 05:25:14;;;;;;;3.08;1.60;;;19.50;66.90;;;;;;5043805;28;20112;-83
2022/08/13 05:27:41;;;;;;;3.67;1.58;;;19.50;67.20;;;;;;5044382;28;20033;-79
2022/08/13 05:30:08;;;;;;;2.92;1.88;;;19.60;67.20;;;;;;5044670;28;20036;-82
2022/08/13 05:32:40;;;;;;;4.90;1.65;;;19.60;67.00;;;;;;5044363;28;20036;-80
2022/08/13 05:35:08;;;;;;;6.28;1.63;;;19.70;66.60;;;;;;5061678;28;20017;-82
2022/08/13 05:37:33;;;;;;;1.63;1.23;;;19.80;67.10;;;;;;5053655;28;20024;-81
2022/08/13 05:39:59;;;;;;;5.90;1.60;;;19.70;66.80;;;;;;5046203;28;20119;-81
2022/08/13 05:42:24;;;;;;;3.58;1.80;;;19.90;66.80;;;;;;5057945;28;20116;-80
2022/08/13 05:44:50;;;;;;;2.58;1.50;;;19.80;66.10;;;;;;5039524;28;20036;-82
2022/08/13 05:47:17;;;;;;;2.03;1.38;;;19.90;66.60;;;;;;5043100;28;20036;-80
2022/08/13 05:49:42;;;;;;;2.67;1.50;;;19.90;66.50;;;;;;5065135;28;20075;-83
2022/08/13 05:52:11;;;;;;;4.18;1.67;;;20.10;66.30;;;;;;5063638;28;20024;-81
2022/08/13 05:54:37;;;;;;;3.53;1.50;;;20.70;64.60;;;;;;5055183;28;20047;-81
2022/08/13 05:57:03;;;;;;;2.08;1.25;;;21.00;64.30;;;;;;5044530;28;20025;-81
2022/08/13 06:04:57;;;;;;;2.03;1.55;;;22.80;59.90;;;;;;5058925;28;20043;-85
2022/08/13 06:07:23;;;;;;;2.22;1.40;;;22.80;59.90;;;;;;5051445;28;20036;-82
2022/08/13 06:09:49;;;;;;;5.15;1.65;;;22.70;60.10;;;;;;5047937;28;20017;-80
2022/08/13 06:12:15;;;;;;;2.72;1.33;;;22.60;60.80;;;;;;5062664;28;20033;-80
2022/08/13 06:14:41;;;;;;;3.08;1.58;;;22.40;60.20;;;;;;5045233;28;20032;-82
2022/08/13 06:17:06;;;;;;;4.45;1.75;;;22.30;61.70;;;;;;5044193;28;20021;-83
2022/08/13 06:19:32;;;;;;;3.63;1.50;;;22.20;61.20;;;;;;5044496;28;20029;-81
2022/08/13 06:22:04;;;;;;;3.47;1.50;;;22.20;61.50;;;;;;5044931;28;20025;-82
2022/08/13 06:24:37;;;;;;;3.03;1.63;;;22.10;61.30;;;;;;5059723;28;20470;-84
2022/08/13 06:27:04;;;;;;;2.92;1.40;;;22.10;61.60;;;;;;5039253;28;20032;-83
2022/08/13 06:29:40;;;;;;;2.35;1.50;;;22.00;61.80;;;;;;5058303;28;20482;-79
2022/08/13 06:32:06;;;;;;;2.17;1.50;;;22.20;62.90;;;;;;5041143;28;20075;-81
2022/08/13 06:34:34;;;;;;;2.97;1.40;;;;;;;;;;5050943;28;20017;-79
2022/08/13 06:37:02;;;;;;;2.25;1.50;;;22.10;61.60;;;;;;5046403;28;20107;-82
2022/08/13 06:39:29;;;;;;;2.22;1.30;;;22.00;62.60;;;;;;5043816;28;20021;-83
2022/08/13 06:42:02;;;;;;;2.00;1.55;;;21.80;62.30;;;;;;5044830;28;20411;-81
2022/08/13 06:44:32;;;;;;;2.15;1.27;;;22.10;61.80;;;;;;5052521;28;20111;-82
2022/08/13 06:47:03;;;;;;;2.05;1.40;;;22.10;62.20;;;;;;5055187;28;20025;-81
2022/08/13 06:49:30;;;;;;;3.72;1.30;;;22.00;62.20;;;;;;5044468;28;20028;-83
2022/08/13 06:51:57;;;;;;;1.98;1.30;;;;;;;;;;5040840;28;20025;-81
2022/08/13 06:54:24;;;;;;;2.25;1.48;;;22.10;61.70;;;;;;5041114;28;20017;-80
2022/08/13 06:56:51;;;;;;;1.85;1.33;;;22.10;62.40;;;;;;5041560;28;20033;-81
2022/08/13 06:59:19;;;;;;;3.78;1.73;;;22.50;62.50;;;;;;5043110;28;20028;-83
2022/08/13 07:01:46;;;;;;;2.25;1.52;;;22.20;62.20;;;;;;5047087;28;20031;-83
2022/08/13 07:04:19;;;;;;;4.30;1.63;;;22.00;62.20;;;;;;5041237;28;20017;-82
2022/08/13 07:06:47;;;;;;;4.10;1.60;;;;;;;;;;5057310;28;20025;-81
2022/08/13 07:09:14;;;;;;;3.35;1.50;;;22.20;62.00;;;;;;5044699;28;20017;-83
2022/08/13 07:11:44;;;;;;;2.63;1.40;;;22.40;62.40;;;;;;5045842;28;20013;-81
2022/08/13 07:14:10;;;;;;;;;;;22.50;61.80;;;;;;5064862;28;20021;-83
2022/08/13 07:16:36;;;;;;;2.03;1.40;;;;;;;;;;5047430;28;19916;-81
2022/08/13 07:19:03;;;;;;;3.05;1.42;;;22.70;61.60;;;;;;5044927;28;20021;-83
2022/08/13 07:21:30;;;;;;;2.60;1.63;;;23.00;61.60;;;;;;5046485;28;20379;-83
2022/08/13 07:23:58;;;;;;;2.35;1.63;;;23.00;61.70;;;;;;5055597;28;20060;-83
2022/08/13 07:26:29;;;;;;;3.58;1.65;;;23.00;62.20;;;;;;5046305;28;20457;-83
2022/08/13 07:28:55;;;;;;;2.22;1.60;;;;;;;;;;5041945;28;20421;-82
2022/08/13 07:31:30;;;;;;;2.25;1.40;;;23.30;61.30;;;;;;5047672;28;20025;-83
2022/08/13 07:33:59;;;;;;;2.05;1.40;;;23.40;61.30;;;;;;5061641;28;20032;-84
2022/08/13 07:36:30;;;;;;;5.47;1.52;;;23.50;61.10;;;;;;5053973;28;20021;-82
2022/08/13 07:38:57;;;;;;;3.10;1.48;;;23.50;61.60;;;;;;5045398;28;20033;-83
2022/08/13 07:41:23;;;;;;;2.70;1.52;;;;;;;;;;5041487;28;20036;-83
2022/08/13 07:43:49;;;;;;;2.53;1.30;;;23.70;60.80;;;;;;5047232;28;20024;-82
2022/08/13 07:46:17;;;;;;;2.22;1.50;;;23.80;60.80;;;;;;5052606;28;20047;-81
2022/08/13 07:48:49;;;;;;;2.75;1.42;;;23.90;60.70;;;;;;5061087;28;20029;-84
2022/08/13 07:51:19;;;;;;;3.40;1.40;;;23.90;60.70;;;;;;5030759;28;20036;-81
2022/08/13 07:53:50;;;;;;;1.95;1.40;;;24.20;60.40;;;;;;5046063;28;20032;-82
2022/08/13 07:56:31;;;;;;;4.10;1.55;;;24.30;60.30;;;;;;5061621;28;20032;-81
2022/08/13 07:59:04;;;;;;;2.88;1.60;;;24.40;60.80;;;;;;5046308;28;20053;-82
2022/08/13 08:01:31;;;;;;;4.53;1.40;;;24.60;59.70;;;;;;5057999;28;20021;-82
2022/08/13 08:03:59;;;;;;;2.65;1.50;;;24.70;59.90;;;;;;5047277;28;20048;-81
2022/08/13 08:06:26;;;;;;;2.90;1.40;;;24.80;59.20;;;;;;5046919;28;20033;-84
2022/08/13 08:08:53;;;;;;;3.25;1.70;;;;;;;;;;5048737;28;20387;-82
2022/08/13 08:14:05;;;;;;;3.63;1.50;;;25.10;58.90;;;;;;5059340;28;20031;-82
2022/08/13 08:16:32;;;;;;;2.55;1.67;;;25.20;58.70;;;;;;5045865;28;20028;-81
2022/08/13 08:18:59;;;;;;;2.97;1.35;;;25.20;59.10;;;;;;5051823;28;20068;-85
2022/08/13 08:21:26;;;;;;;3.28;1.30;;;25.40;58.60;;;;;;5051669;28;20017;-81
2022/08/13 08:23:57;;;;;;;2.47;1.60;;;25.50;58.10;;;;;;5068099;28;20059;-82
2022/08/13 08:26:27;;;;;;;3.13;2.00;;;25.50;58.20;;;;;;5067737;28;20025;-82
2022/08/13 08:28:55;;;;;;;3.42;2.10;;;25.70;58.60;;;;;;5049030;28;20048;-82
2022/08/13 08:31:21;;;;;;;3.10;1.58;;;25.80;57.80;;;;;;5046548;28;20025;-82
2022/08/13 08:33:47;;;;;;;3.63;1.60;;;26.00;57.10;;;;;;5062884;28;20017;-81
2022/08/13 08:36:14;;;;;;;3.00;1.40;;;26.00;57.10;;;;;;5051880;28;20071;-82
2022/08/13 08:44:24;;;;;;;2.85;1.40;;;26.30;56.30;;;;;;5064236;28;20064;-80
2022/08/13 08:46:56;;;;;;;3.13;1.42;;;26.30;56.70;;;;;;5042029;28;20045;-80
2022/08/13 08:49:24;;;;;;;6.97;1.60;;;26.40;57.40;;;;;;5058171;28;20021;-81
2022/08/13 08:51:51;;;;;;;5.57;1.60;;;26.50;56.90;;;;;;5045106;28;20041;-81
2022/08/13 08:54:19;;;;;;;2.75;1.67;;;26.70;56.00;;;;;;5043789;28;20021;-84
2022/08/13 08:56:47;;;;;;;2.67;1.50;;;26.70;55.80;;;;;;5049281;28;20021;-82
2022/08/13 08:59:14;;;;;;;1.95;1.40;;;26.60;56.20;;;;;;5060171;28;20099;-82
2022/08/13 09:01:40;;;;;;;3.60;1.40;;;26.70;55.20;;;;;;5047246;28;20018;-82
2022/08/13 09:04:08;;;;;;;2.40;1.50;;;26.70;55.70;;;;;;5062790;28;20097;-80
2022/08/13 09:06:35;;;;;;;1.75;1.20;;;;;;;;;;5068001;28;20033;-82
2022/08/13 09:09:02;;;;;;;4.57;1.30;;;27.00;55.30;;;;;;5041940;28;20498;-81
2022/08/13 09:11:34;;;;;;;3.75;1.60;;;27.10;55.00;;;;;;5050576;28;20036;-81
2022/08/13 09:14:08;;;;;;;1.85;1.35;;;27.00;54.90;;;;;;5061641;28;20040;-83
2022/08/13 09:16:38;;;;;;;6.28;1.20;;;27.00;55.30;;;;;;5046606;28;20056;-82
2022/08/13 09:19:08;;;;;;;2.13;1.40;;;27.00;55.10;;;;;;5065573;28;20113;-84
2022/08/13 09:21:45;;;;;;;2.20;1.50;;;27.00;55.50;;;;;;5047437;28;20035;-83
2022/08/13 09:24:15;;;;;;;3.50;1.30;;;27.10;55.40;;;;;;5065859;28;20055;-82
2022/08/13 09:26:51;;;;;;;4.10;1.50;;;27.20;55.50;;;;;;5064540;28;20408;-82
2022/08/13 09:29:18;;;;;;;2.55;1.50;;;27.30;55.20;;;;;;5049742;28;20033;-81
2022/08/13 09:31:50;;;;;;;3.65;1.50;;;27.40;54.30;;;;;;5049561;28;20056;-83
2022/08/13 09:34:17;;;;;;;3.33;1.25;;;27.60;54.30;;;;;;5063599;28;20078;-82
2022/08/13 09:36:43;;;;;;;2.35;1.40;;;27.80;54.20;;;;;;5044642;28;20059;-81
2022/08/13 09:39:26;;;;;;;3.00;1.50;;;27.80;54.10;;;;;;5050059;28;20113;-81
2022/08/13 09:41:53;;;;;;;3.13;1.52;;;27.80;53.40;;;;;;5052170;28;20033;-81
2022/08/13 09:44:18;;;;;;;2.15;1.33;;;27.90;53.60;;;;;;5064402;28;20021;-82
2022/08/13 09:46:45;;;;;;;1.33;1.15;;;27.90;53.00;;;;;;5068607;28;20082;-82
2022/08/13 09:49:11;;;;;;;3.80;1.50;;;;;;;;;;5048860;28;20033;-80
2022/08/13 09:51:38;;;;;;;2.75;1.20;;;;;;;;;;5049874;28;20394;-80
2022/08/13 09:54:09;;;;;;;4.85;1.40;;;;;;;;;;5067444;28;20021;-83
2022/08/13 09:56:38;;;;;;;2.97;1.35;;;;;;;;;;5062804;28;20040;-83
2022/08/13 09:59:08;;;;;;;1.40;1.10;;;28.50;51.20;;;;;;5062590;28;20028;-82
2022/08/13 10:01:35;;;;;;;3.78;1.20;;;;;;;;;;5054416;28;20021;-80
2022/08/13 10:04:01;;;;;;;1.75;1.00;;;;;;;;;;5040712;28;20415;-81
2022/08/13 10:06:28;;;;;;;2.53;1.10;;;28.60;51.50;;;;;;5061538;28;20027;-81
2022/08/13 10:08:55;;;;;;;2.70;1.17;;;;;;;;;;5061222;28;20048;-82
2022/08/13 10:11:22;;;;;;;3.17;1.15;;;;;;;;;;5049157;28;20124;-81
2022/08/13 10:13:48;;;;;;;1.65;1.17;;;;;;;;;;5051499;28;20021;-79
2022/08/13 10:16:14;;;;;;;1.25;1.13;;;;;;;;;;5063114;28;20029;-82
2022/08/13 10:18:41;;;;;;;7.15;1.20;;;;;;;;;;5064929;28;20025;-79
2022/08/13 10:21:08;;;;;;;1.83;1.10;;;;;;;;;;5061680;28;20021;-80
2022/08/13 10:23:34;;;;;;;3.00;1.25;;;;;;;;;;5063763;28;20034;-78
2022/08/13 10:26:00;;;;;;;1.98;1.30;;;28.90;49.20;;;;;;5067764;28;20037;-79
2022/08/13 10:28:31;;;;;;;2.90;1.30;;;29.10;48.80;;;;;;5047365;28;20021;-80
2022/08/13 10:30:58;;;;;;;2.10;1.30;;;29.10;48.70;;;;;;5043248;28;20024;-79
2022/08/13 10:33:24;;;;;;;1.60;1.20;;;;;;;;;;5047532;28;20020;-80
2022/08/13 10:35:55;;;;;;;3.05;1.20;;;;;;;;;;5045386;28;20037;-82
2022/08/13 10:38:25;;;;;;;2.05;1.23;;;;;;;;;;5054842;28;20044;-80
2022/08/13 10:40:51;;;;;;;1.92;1.40;;;;;;;;;;5062268;28;20033;-80
2022/08/13 10:43:18;;;;;;;3.75;1.30;;;;;;;;;;5061642;28;20020;-80
2022/08/13 10:45:46;;;;;;;2.75;1.52;;;;;;;;;;5046009;28;20091;-81
2022/08/13 10:48:12;;;;;;;2.25;1.35;;;29.40;48.90;;;;;;5064410;28;20029;-81
2022/08/13 10:50:39;;;;;;;2.90;1.60;;;;;;;;;;5055283;28;20021;-82
2022/08/13 10:53:05;;;;;;;3.05;1.20;;;;;;;;;;5063624;28;20052;-81
2022/08/13 10:55:31;;;;;;;1.30;1.15;;;;;;;;;;5047590;28;20029;-80
2022/08/13 10:57:58;;;;;;;2.53;1.25;;;;;;;;;;5056777;28;20399;-80
2022/08/13 11:00:25;;;;;;;2.92;1.45;;;;;;;;;;5045198;28;20051;-81
2022/08/13 11:02:51;;;;;;;1.50;1.23;;;;;;;;;;5043571;28;20083;-81
2022/08/13 11:05:27;;;;;;;5.88;1.60;;;29.60;48.00;;;;;;5058505;28;20033;-81
2022/08/13 11:07:56;;;;;;;1.98;1.10;;;;;;;;;;5045622;28;20041;-82
2022/08/13 11:10:22;;;;;;;3.50;1.33;;;;;;;;;;5034757;28;20026;-83
2022/08/13 11:12:52;;;;;;;1.92;1.20;;;30.10;47.60;;;;;;5063455;28;20055;-81
2022/08/13 11:15:25;;;;;;;3.42;1.20;;;30.30;47.40;;;;;;5039298;28;20029;-81
2022/08/13 11:17:53;;;;;;;2.28;1.20;;;30.20;46.90;;;;;;5037380;28;20036;-81
2022/08/13 11:20:20;;;;;;;2.23;1.40;;;30.00;47.10;;;;;;5049444;28;20013;-82
2022/08/13 11:22:57;;;;;;;3.00;1.23;;;30.00;47.60;;;;;;5046440;28;20271;-82
2022/08/13 11:25:24;;;;;;;1.95;1.30;;;30.00;47.10;;;;;;5047403;28;20033;-81
2022/08/13 11:27:49;;;;;;;2.08;1.20;;;30.00;47.60;;;;;;5044179;28;20111;-80
2022/08/13 11:30:16;;;;;;;3.05;1.30;;;30.10;47.80;;;;;;5043456;28;20088;-83
2022/08/13 11:32:42;;;;;;;3.17;1.17;;;30.30;47.30;;;;;;5043398;28;20021;-81
2022/08/13 11:35:09;;;;;;;2.10;1.20;;;30.30;46.90;;;;;;5045645;28;20085;-81
2022/08/13 11:37:35;;;;;;;2.88;1.30;;;30.30;47.20;;;;;;5047602;28;20049;-80
2022/08/13 11:40:03;;;;;;;3.97;1.60;;;30.20;47.50;;;;;;5044118;28;20064;-82
2022/08/13 11:42:30;;;;;;;2.25;1.10;;;;;;;;;;5061768;28;20244;-80
2022/08/13 11:44:56;;;;;;;2.33;1.55;;;;;;;;;;5062383;28;20044;-82
2022/08/13 11:47:21;;;;;;;1.67;1.05;;;;;;;;;;5064109;28;20380;-83
2022/08/13 11:49:47;;;;;;;1.52;1.25;;;30.30;47.20;;;;;;5045980;28;20089;-81
2022/08/13 11:52:13;;;;;;;3.63;1.20;;;30.40;46.90;;;;;;5065344;28;20048;-84
2022/08/13 11:54:38;;;;;;;2.72;1.15;;;30.60;46.70;;;;;;5051046;28;20021;-79
2022/08/13 11:57:06;;;;;;;2.40;1.17;;;30.60;47.20;;;;;;5053016;28;20021;-80
2022/08/13 11:59:32;;;;;;;1.60;1.10;;;;;;;;;;5046416;28;20016;-81
2022/08/13 12:01:58;;;;;;;1.75;1.20;;;30.70;46.60;;;;;;5066424;28;20076;-81
2022/08/13 12:04:25;;;;;;;4.13;1.50;;;30.40;46.60;;;;;;5069636;28;20040;-85
2022/08/13 12:06:51;;;;;;;2.10;1.13;;;;;;;;;;5068748;28;20021;-80
2022/08/13 12:09:18;;;;;;;2.75;1.40;;;30.40;45.80;;;;;;5061717;28;20095;-82
2022/08/13 12:11:43;;;;;;;1.65;1.20;;;30.30;46.20;;;;;;5047763;28;20034;-79
2022/08/13 12:16:48;;;;;;;2.47;1.15;;;;;;;;;;5040837;28;20053;-84
2022/08/13 12:19:13;;;;;;;2.53;1.35;;;;;;;;;;5047945;28;20030;-85
2022/08/13 12:21:40;;;;;;;3.00;1.40;;;;;;;;;;5004710;28;20026;-84
2022/08/13 12:24:06;;;;;;;1.98;1.38;;;;;;;;;;5032730;28;20022;-84
2022/08/13 12:26:32;;;;;;;3.80;1.20;;;;;;;;;;5037215;28;20224;-84
2022/08/13 12:28:58;;;;;;;2.78;1.15;;;;;;;;;;5029613;28;20030;-84
2022/08/13 12:31:24;;;;;;;2.70;1.35;;;;;;;;;;5034709;28;20018;-84
2022/08/13 12:33:50;;;;;;;2.13;1.38;;;;;;;;;;5031121;28;20022;-85
2022/08/13 12:36:16;;;;;;;3.05;1.10;;;;;;;;;;5012244;28;20021;-84
2022/08/13 12:38:42;;;;;;;2.83;1.55;;;;;;;;;;5037708;28;20065;-85
2022/08/13 12:41:08;;;;;;;3.05;1.40;;;;;;;;;;5019108;28;20039;-84
2022/08/13 12:43:35;;;;;;;1.95;1.30;;;;;;;;;;5043371;28;20014;-86
2022/08/13 12:46:00;;;;;;;1.88;1.35;;;31.20;46.20;;;;;;5016020;28;20133;-84
2022/08/13 12:48:31;;;;;;;2.75;1.05;;;31.20;44.20;;;;;;5025005;28;20038;-84
2022/08/13 12:50:56;;;;;;;1.33;1.02;;;31.30;44.40;;;;;;5032160;28;20056;-84
2022/08/13 12:53:22;;;;;;;2.05;1.17;;;;;;;;;;5028746;28;20026;-84
2022/08/13 12:55:48;;;;;;;3.17;1.10;;;31.20;43.60;;;;;;5031883;28;20145;-83
2022/08/13 12:58:19;;;;;;;2.10;1.05;;;31.10;43.70;;;;;;5032610;28;20104;-85
2022/08/13 13:00:47;;;;;;;1.70;1.15;;;31.40;43.90;;;;;;5033119;28;20056;-85
2022/08/13 13:03:13;;;;;;;2.85;1.30;;;31.40;43.90;;;;;;5025652;28;20046;-86
2022/08/13 13:05:45;;;;;;;1.40;1.00;;;31.80;43.30;;;;;;5019152;28;20025;-84
2022/08/13 13:08:28;;;;;;;1.92;1.25;;;31.90;43.60;;;;;;5035908;28;20033;-85
2022/08/13 13:10:56;;;;;;;2.38;1.00;;;31.90;43.70;;;;;;5037777;28;20018;-86
2022/08/13 13:13:24;;;;;;;2.53;1.20;;;31.90;44.10;;;;;;5028621;28;20037;-86
2022/08/13 13:15:51;;;;;;;1.52;1.17;;;31.90;44.20;;;;;;5017774;28;20030;-86
2022/08/13 13:18:26;;;;;;;3.40;1.30;;;31.90;44.20;;;;;;5027809;28;20069;-84
2022/08/13 13:20:53;;;;;;;1.85;1.00;;;31.80;43.90;;;;;;5022362;28;20109;-85
2022/08/13 13:23:21;;;;;;;1.52;1.10;;;31.80;42.60;;;;;;5018207;28;20035;-86
2022/08/13 13:25:48;;;;;;;2.63;0.95;;;31.60;42.00;;;;;;5033582;28;20068;-86
2022/08/13 13:28:17;;;;;;;5.15;1.13;;;31.60;43.10;;;;;;5037506;28;20041;-86
2022/08/13 13:30:44;;;;;;;2.20;1.00;;;31.70;43.60;;;;;;5040723;28;20564;-87
2022/08/13 13:33:12;;;;;;;5.18;1.13;;;31.80;43.40;;;;;;5032051;28;20022;-85
2022/08/13 13:35:38;;;;;;;2.28;1.35;;;;;;;;;;5032998;28;20048;-85
2022/08/13 13:38:06;;;;;;;4.10;1.08;;;31.60;43.50;;;;;;5039512;28;20088;-84
2022/08/13 13:40:34;;;;;;;2.83;1.17;;;31.60;43.20;;;;;;5047240;28;20034;-87
2022/08/13 13:43:04;;;;;;;1.52;1.02;;;;;;;;;;5030462;28;20140;-85